^^
Grace C. Lehan Memorial Weather Station Historical Data
Daily Summary for October 10, 2021 Units:  Metric    English   Both
Daily Weekly Monthly Yearly
  High: Low: Average:
Temperature: 18.3 °C 12.6 °C 15.7 °C
Dew Point: 15.4 °C 11.4 °C 13.5 °C
Humidity: 93% 81% 87%
Wind Speed: 5.6km/h 0km/h 0.8km/h
Wind Gust: 20.9km/h - -
Wind- - ESE
Pressure: 1024.6 hPa 1019.9 hPa -
Precipitation: 0 mm    
 
 
Tabular Data for October 10, 2021
Time Temperature Dew Point Pressure Wind Wind Speed Wind Gust Humidity Rainfall Rate (Hourly) solar
00:09 15.1 °C 12.1 °C 1024.6 hPa ENE 0.2 km/h 3.2 km/h 82% 0 mm 0 W/m2
00:14 15.1 °C 12.1 °C 1024.6 hPa Calm   3.2 km/h 82.2% 0 mm 0 W/m2
00:19 15.1 °C 12.2 °C 1024.6 hPa ENE 0.5 km/h 4.8 km/h 83% 0 mm 0 W/m2
00:24 15 °C 12.2 °C 1024.6 hPa ENE 0.6 km/h 4.8 km/h 83% 0 mm 0 W/m2
00:29 15 °C 12.1 °C 1024.6 hPa ENE 0.3 km/h 4.8 km/h 83% 0 mm 0 W/m2
00:34 14.9 °C 12.1 °C 1024.6 hPa ENE 0.3 km/h 4.8 km/h 83% 0 mm 0 W/m2
00:39 14.9 °C 12.1 °C 1024.6 hPa ENE 1.1 km/h 8 km/h 83.2% 0 mm 0 W/m2
00:44 14.9 °C 12.2 °C 1024.6 hPa ENE 0.8 km/h 8 km/h 83.5% 0 mm 0 W/m2
00:49 14.9 °C 12.2 °C 1024.6 hPa ENE 0.3 km/h 8 km/h 84% 0 mm 0 W/m2
00:54 14.8 °C 12.2 °C 1024.3 hPa ENE 1.9 km/h 9.7 km/h 84% 0 mm 0 W/m2
00:59 14.8 °C 12.2 °C 1024.3 hPa NE 0.5 km/h 9.7 km/h 84% 0 mm 0 W/m2
01:04 14.8 °C 12.1 °C 1024.3 hPa NE 0.2 km/h 9.7 km/h 84% 0 mm 0 W/m2
01:09 14.8 °C 12.2 °C 1024.3 hPa Calm   3.2 km/h 84.5% 0 mm 0 W/m2
01:14 14.7 °C 12.2 °C 1024.3 hPa Calm   3.2 km/h 85% 0 mm 0 W/m2
01:19 14.7 °C 12.2 °C 1024.3 hPa Calm   3.2 km/h 85% 0 mm 0 W/m2
01:24 14.7 °C 12.2 °C 1024.3 hPa ENE 0.3 km/h 4.8 km/h 85% 0 mm 0 W/m2
01:29 14.6 °C 12.2 °C 1024.3 hPa ENE 0.3 km/h 6.4 km/h 85% 0 mm 0 W/m2
01:34 14.6 °C 12.2 °C 1024.3 hPa NE 0.6 km/h 9.7 km/h 85.6% 0 mm 0 W/m2
01:39 14.6 °C 12.3 °C 1024.3 hPa NE 0.5 km/h 9.7 km/h 86% 0 mm 0 W/m2
01:44 14.6 °C 12.2 °C 1024.6 hPa NE 0.5 km/h 9.7 km/h 86% 0 mm 0 W/m2
01:49 14.6 °C 12.2 °C 1024.6 hPa ENE 0.3 km/h 9.7 km/h 86% 0 mm 0 W/m2
01:54 14.5 °C 12.2 °C 1024.6 hPa ENE 1 km/h 9.7 km/h 86% 0 mm 0 W/m2
01:59 14.5 °C 12.2 °C 1024.6 hPa NE 0.5 km/h 9.7 km/h 86% 0 mm 0 W/m2
02:04 14.5 °C 12.2 °C 1024.6 hPa ENE 0.6 km/h 9.7 km/h 86% 0 mm 0 W/m2
02:09 14.5 °C 12.2 °C 1024.6 hPa NE 1.6 km/h 9.7 km/h 86% 0 mm 0 W/m2
02:14 14.4 °C 12.2 °C 1024.3 hPa NE 0.3 km/h 9.7 km/h 86% 0 mm 0 W/m2
02:19 14.4 °C 12.1 °C 1024.3 hPa NE 1.9 km/h 9.7 km/h 86% 0 mm 0 W/m2
02:24 14.4 °C 12.2 °C 1024.3 hPa NE 0.8 km/h 9.7 km/h 86.4% 0 mm 0 W/m2
02:29 14.4 °C 12.3 °C 1024.3 hPa NE 1.6 km/h 9.7 km/h 87% 0 mm 0 W/m2
02:34 14.4 °C 12.3 °C 1024.3 hPa NE 0.6 km/h 9.7 km/h 87% 0 mm 0 W/m2
02:39 14.4 °C 12.3 °C 1024.3 hPa Calm   8 km/h 87% 0 mm 0 W/m2
02:44 14.3 °C 12.2 °C 1024.3 hPa ENE 3.1 km/h 11.3 km/h 87% 0 mm 0 W/m2
02:49 14.3 °C 12.2 °C 1024.3 hPa ENE 2.1 km/h 11.3 km/h 87% 0 mm 0 W/m2
02:54 14.3 °C 12.2 °C 1024.3 hPa NE 2.4 km/h 11.3 km/h 87% 0 mm 0 W/m2
02:59 14.3 °C 12.2 °C 1024.3 hPa NE 0.3 km/h 11.3 km/h 87% 0 mm 0 W/m2
03:04 14.3 °C 12.2 °C 1024.3 hPa Calm   11.3 km/h 87.5% 0 mm 0 W/m2
03:09 14.3 °C 12.3 °C 1024.3 hPa NE 0.5 km/h 8 km/h 87.8% 0 mm 0 W/m2
03:14 14.2 °C 12.1 °C 1024.3 hPa NE 0.5 km/h 8 km/h 87% 0 mm 0 W/m2
03:19 14.2 °C 12.2 °C 1024.3 hPa Calm   8 km/h 87.8% 0 mm 0 W/m2
03:24 14.2 °C 12.2 °C 1023.9 hPa Calm   8 km/h 88% 0 mm 0 W/m2
03:29 14.2 °C 12.2 °C 1023.9 hPa Calm   8 km/h 88% 0 mm 0 W/m2
03:34 14.1 °C 12.2 °C 1023.9 hPa Calm   8 km/h 88% 0 mm 0 W/m2
03:39 14.1 °C 12.1 °C 1023.9 hPa Calm   3.2 km/h 88% 0 mm 0 W/m2
03:44 14.1 °C 12.2 °C 1023.9 hPa NE 0.2 km/h 3.2 km/h 88.3% 0 mm 0 W/m2
03:49 14.1 °C 12.2 °C 1023.9 hPa NE 0.3 km/h 4.8 km/h 88.4% 0 mm 0 W/m2
03:54 14 °C 12.2 °C 1023.9 hPa Calm   4.8 km/h 88.7% 0 mm 0 W/m2
03:59 14 °C 12.2 °C 1023.9 hPa Calm   4.8 km/h 89% 0 mm 0 W/m2
04:09 13.9 °C 12.2 °C 1024.3 hPa Calm     89% 0 mm 0 W/m2
04:14 13.9 °C 12.2 °C 1024.3 hPa Calm     89% 0 mm 0 W/m2
04:19 13.9 °C 12.2 °C 1024.3 hPa Calm   3.2 km/h 89% 0 mm 0 W/m2
04:24 13.9 °C 12.1 °C 1023.9 hPa Calm   3.2 km/h 89% 0 mm 0 W/m2
04:29 13.9 °C 12.1 °C 1023.9 hPa NE 0.3 km/h 4.8 km/h 89% 0 mm 0 W/m2
04:34 13.8 °C 12.1 °C 1023.9 hPa Calm   4.8 km/h 89% 0 mm 0 W/m2
04:39 13.8 °C 12 °C 1024.3 hPa NNE 0.3 km/h 6.4 km/h 89% 0 mm 0 W/m2
04:44 13.7 °C 11.9 °C 1024.3 hPa Calm   6.4 km/h 89% 0 mm 0 W/m2
04:49 13.7 °C 11.9 °C 1023.9 hPa Calm   6.4 km/h 89% 0 mm 0 W/m2
04:54 13.6 °C 11.9 °C 1023.9 hPa Calm   6.4 km/h 89.5% 0 mm 0 W/m2
04:59 13.6 °C 11.9 °C 1023.9 hPa Calm   6.4 km/h 90% 0 mm 0 W/m2
05:04 13.4 °C 11.8 °C 1023.9 hPa Calm   6.4 km/h 90% 0 mm 0 W/m2
05:09 13.4 °C 11.8 °C 1023.9 hPa Calm     90% 0 mm 0 W/m2
05:14 13.3 °C 11.7 °C 1023.9 hPa NNE 0.3 km/h 8 km/h 90% 0 mm 0 W/m2
05:19 13.3 °C 11.7 °C 1023.9 hPa Calm   8 km/h 90% 0 mm 0 W/m2
05:24 13.2 °C 11.6 °C 1023.9 hPa NNE 0.2 km/h 8 km/h 90% 0 mm 0 W/m2
05:29 13.2 °C 11.6 °C 1023.9 hPa NNW 0.3 km/h 8 km/h 90.2% 0 mm 0 W/m2
05:34 13.1 °C 11.6 °C 1023.9 hPa Calm   8 km/h 90.5% 0 mm 0 W/m2
05:39 13.1 °C 11.6 °C 1023.6 hPa NW 0.3 km/h 4.8 km/h 91% 0 mm 0 W/m2
05:44 13 °C 11.6 °C 1023.6 hPa Calm   4.8 km/h 91% 0 mm 0 W/m2
05:49 12.9 °C 11.5 °C 1023.6 hPa Calm   4.8 km/h 91% 0 mm 0 W/m2
05:54 12.9 °C 11.5 °C 1023.6 hPa Calm   4.8 km/h 91% 0 mm 0 W/m2
05:59 12.8 °C 11.4 °C 1023.6 hPa NW 0.3 km/h 4.8 km/h 91% 0 mm 0 W/m2
06:04 12.8 °C 11.4 °C 1023.6 hPa NW 0.3 km/h 6.4 km/h 91% 0 mm 0 W/m2
06:09 12.8 °C 11.4 °C 1023.6 hPa Calm   6.4 km/h 91.3% 0 mm 0 W/m2
06:14 12.7 °C 11.5 °C 1023.6 hPa North 0.2 km/h 6.4 km/h 92% 0 mm 0 W/m2
06:19 12.7 °C 11.4 °C 1023.6 hPa North 0.2 km/h 6.4 km/h 92% 0 mm 0 W/m2
06:24 12.7 °C 11.4 °C 1023.6 hPa Calm   6.4 km/h 92% 0 mm 0 W/m2
06:29 12.7 °C 11.4 °C 1023.6 hPa North 0.2 km/h 6.4 km/h 92% 0 mm 0 W/m2
06:34 12.7 °C 11.4 °C 1023.6 hPa Calm   6.4 km/h 92% 0 mm 0 W/m2
06:39 12.7 °C 11.4 °C 1023.6 hPa NW 1 km/h 9.7 km/h 92% 0 mm 0 W/m2
06:44 12.7 °C 11.4 °C 1023.6 hPa Calm   9.7 km/h 92% 0 mm 0 W/m2
06:49 12.6 °C 11.4 °C 1023.6 hPa North 1.3 km/h 11.3 km/h 92% 0 mm 0 W/m2
06:54 12.6 °C 11.4 °C 1023.6 hPa NNE 0.3 km/h 11.3 km/h 92% 0 mm 0 W/m2
06:59 12.6 °C 11.4 °C 1023.6 hPa NNE 0.8 km/h 11.3 km/h 92.2% 0 mm 0 W/m2
07:04 12.6 °C 11.5 °C 1023.6 hPa NNE 0.3 km/h 11.3 km/h 93% 0 mm 0 W/m2
07:09 12.6 °C 11.5 °C 1023.6 hPa Calm   6.4 km/h 93% 0 mm 0 W/m2
07:14 12.7 °C 11.6 °C 1023.9 hPa NNE 0.2 km/h 6.4 km/h 93% 0 mm 5 W/m2
07:19 12.7 °C 11.6 °C 1023.9 hPa Calm   6.4 km/h 93% 0 mm 7 W/m2
07:24 12.7 °C 11.6 °C 1023.9 hPa NNE 0.6 km/h 6.4 km/h 93% 0 mm 9 W/m2
07:29 12.8 °C 11.7 °C 1023.9 hPa NNW 0.2 km/h 6.4 km/h 93% 0 mm 11 W/m2
07:34 12.8 °C 11.7 °C 1023.9 hPa NNW 0.3 km/h 6.4 km/h 93% 0 mm 12 W/m2
07:39 12.8 °C 11.7 °C 1023.9 hPa NNW 0.8 km/h 6.4 km/h 93% 0 mm 14 W/m2
07:44 12.8 °C 11.8 °C 1023.9 hPa NNW 0.5 km/h 8 km/h 93% 0 mm 14 W/m2
07:49 12.9 °C 11.8 °C 1023.9 hPa NNE 0.2 km/h 8 km/h 93% 0 mm 18 W/m2
07:54 12.9 °C 11.8 °C 1023.9 hPa NE 0.2 km/h 8 km/h 93% 0 mm 19 W/m2
07:59 13 °C 11.9 °C 1023.9 hPa NE 0.6 km/h 8 km/h 93% 0 mm 19 W/m2
08:00 13.1 °C 11.9 °C 1023.9 hPa Calm   8 km/h 93% 0 mm 19 W/m2
08:09 13.2 °C 12.1 °C 1023.9 hPa Calm   3.2 km/h 93% 0 mm 35 W/m2
08:14 13.2 °C 12.1 °C 1023.9 hPa NNW 1.1 km/h 9.7 km/h 93% 0 mm 35 W/m2
08:19 13.3 °C 12.2 °C 1023.9 hPa NNW 0.5 km/h 14.5 km/h 93% 0 mm 37 W/m2
08:24 13.3 °C 12.2 °C 1023.9 hPa NW 0.8 km/h 14.5 km/h 93% 0 mm 42 W/m2
08:29 13.4 °C 12.2 °C 1023.9 hPa Calm   14.5 km/h 92.6% 0 mm 44 W/m2
08:34 13.5 °C 12.2 °C 1023.9 hPa Calm   14.5 km/h 92.1% 0 mm 47 W/m2
08:39 13.6 °C 12.4 °C 1023.9 hPa NW 0.2 km/h 4.8 km/h 92.6% 0 mm 46 W/m2
08:44 13.7 °C 12.4 °C 1024.3 hPa Calm   4.8 km/h 92% 0 mm 42 W/m2
08:49 13.7 °C 12.4 °C 1024.3 hPa Calm   4.8 km/h 92% 0 mm 42 W/m2
08:54 13.8 °C 12.5 °C 1024.3 hPa NNW 0.8 km/h 9.7 km/h 92% 0 mm 44 W/m2
08:59 13.8 °C 12.6 °C 1024.3 hPa Calm   9.7 km/h 92% 0 mm 46 W/m2
09:04 14 °C 12.7 °C 1024.3 hPa Calm   9.7 km/h 92% 0 mm 47 W/m2
09:09 14.1 °C 12.7 °C 1024.3 hPa NNW 1 km/h 8 km/h 91.7% 0 mm 54 W/m2
09:14 14.1 °C 12.8 °C 1024.3 hPa North 0.3 km/h 8 km/h 91.7% 0 mm 58 W/m2
09:19 14.2 °C 12.7 °C 1024.3 hPa North 0.5 km/h 8 km/h 91% 0 mm 67 W/m2
09:24 14.3 °C 12.8 °C 1024.3 hPa North 0.8 km/h 9.7 km/h 91% 0 mm 70 W/m2
09:29 14.3 °C 12.9 °C 1024.3 hPa NNW 0.3 km/h 9.7 km/h 91% 0 mm 67 W/m2
09:34 14.4 °C 13 °C 1024.3 hPa NNW 0.3 km/h 9.7 km/h 91% 0 mm 77 W/m2
09:39 14.6 °C 13 °C 1023.9 hPa NNW 1.1 km/h 9.7 km/h 90.4% 0 mm 84 W/m2
09:44 14.6 °C 13.1 °C 1023.9 hPa NNE 0.6 km/h 9.7 km/h 90.8% 0 mm 88 W/m2
09:49 14.7 °C 13.1 °C 1024.3 hPa NE 0.3 km/h 9.7 km/h 90.2% 0 mm 86 W/m2
09:54 14.7 °C 13 °C 1024.3 hPa NE 0.2 km/h 9.7 km/h 89.4% 0 mm 83 W/m2
09:59 14.8 °C 13 °C 1024.3 hPa North 0.3 km/h 9.7 km/h 89% 0 mm 81 W/m2
10:04 14.9 °C 13.2 °C 1024.3 hPa NNW 0.3 km/h 9.7 km/h 89.3% 0 mm 93 W/m2
10:09 15.1 °C 13.2 °C 1023.9 hPa NNW 0.3 km/h 9.7 km/h 89% 0 mm 113 W/m2
10:14 15.1 °C 13.3 °C 1023.9 hPa NNW 1.4 km/h 9.7 km/h 89% 0 mm 113 W/m2
10:19 15.2 °C 13.2 °C 1023.9 hPa NNE 0.8 km/h 9.7 km/h 88.1% 0 mm 102 W/m2
10:24 15.3 °C 13.3 °C 1023.9 hPa East 0.5 km/h 9.7 km/h 88.2% 0 mm 111 W/m2
10:29 15.4 °C 13.4 °C 1023.9 hPa Calm   9.7 km/h 88% 0 mm 109 W/m2
10:34 15.4 °C 13.4 °C 1023.9 hPa ENE 1 km/h 9.7 km/h 88% 0 mm 109 W/m2
10:39 15.5 °C 13.4 °C 1023.9 hPa ENE 4.5 km/h 11.3 km/h 87.3% 0 mm 107 W/m2
10:44 15.6 °C 13.4 °C 1023.9 hPa ENE 0.5 km/h 11.3 km/h 87% 0 mm 79 W/m2
10:49 15.6 °C 13.4 °C 1023.9 hPa ENE 0.6 km/h 11.3 km/h 87% 0 mm 81 W/m2
10:54 15.6 °C 13.4 °C 1023.9 hPa NE 0.8 km/h 11.3 km/h 87% 0 mm 72 W/m2
10:59 15.6 °C 13.4 °C 1023.6 hPa NNE 0.3 km/h 11.3 km/h 87.1% 0 mm 79 W/m2
11:04 15.6 °C 13.6 °C 1023.6 hPa NE 0.8 km/h 11.3 km/h 87.7% 0 mm 79 W/m2
11:09 15.7 °C 13.7 °C 1023.6 hPa ENE 0.3 km/h 8 km/h 87.8% 0 mm 74 W/m2
11:14 15.7 °C 13.7 °C 1023.6 hPa Calm   8 km/h 87.7% 0 mm 67 W/m2
11:19 15.8 °C 13.8 °C 1023.6 hPa Calm   8 km/h 88% 0 mm 88 W/m2
11:24 15.9 °C 13.9 °C 1023.6 hPa Calm   8 km/h 88% 0 mm 105 W/m2
11:29 15.9 °C 14 °C 1023.6 hPa ENE 1 km/h 8 km/h 88% 0 mm 125 W/m2
11:34 16.1 °C 13.9 °C 1023.2 hPa ENE 0.6 km/h 8 km/h 87.1% 0 mm 125 W/m2
11:39 16.1 °C 13.9 °C 1023.2 hPa ENE 0.3 km/h 6.4 km/h 87% 0 mm 114 W/m2
11:44 16.2 °C 14 °C 1023.2 hPa Calm   6.4 km/h 87% 0 mm 130 W/m2
11:49 16.3 °C 14.2 °C 1022.9 hPa NE 1.1 km/h 6.4 km/h 87.3% 0 mm 127 W/m2
11:54 16.4 °C 14.3 °C 1022.9 hPa North 1 km/h 11.3 km/h 87% 0 mm 116 W/m2
11:59 16.5 °C 14.2 °C 1022.6 hPa North 0.3 km/h 11.3 km/h 86.4% 0 mm 95 W/m2
12:00 16.6 °C 14.2 °C 1022.6 hPa Calm   11.3 km/h 86% 0 mm 69 W/m2
12:09 16.6 °C 14.3 °C 1022.9 hPa Calm     86.4% 0 mm 79 W/m2
12:14 16.7 °C 14.4 °C 1022.9 hPa Calm     86.8% 0 mm 91 W/m2
12:19 16.7 °C 14.4 °C 1022.9 hPa ENE 0.5 km/h 6.4 km/h 86.5% 0 mm 91 W/m2
12:24 16.7 °C 14.4 °C 1022.9 hPa ENE 0.8 km/h 6.4 km/h 86% 0 mm 113 W/m2
12:29 16.8 °C 14.6 °C 1022.9 hPa ENE 0.5 km/h 6.4 km/h 86.6% 0 mm 114 W/m2
12:34 16.9 °C 14.6 °C 1022.9 hPa ENE 0.3 km/h 6.4 km/h 86.4% 0 mm 97 W/m2
12:39 17 °C 14.6 °C 1022.9 hPa ENE 1.1 km/h 8 km/h 86.1% 0 mm 97 W/m2
12:44 17 °C 14.7 °C 1022.6 hPa ENE 2.7 km/h 9.7 km/h 86% 0 mm 134 W/m2
12:49 17.1 °C 14.7 °C 1022.6 hPa East 0.3 km/h 9.7 km/h 86% 0 mm 144 W/m2
12:54 17.2 °C 14.9 °C 1022.6 hPa East 0.2 km/h 9.7 km/h 86.2% 0 mm 128 W/m2
12:59 17.3 °C 15 °C 1022.9 hPa ENE 0.2 km/h 9.7 km/h 86.1% 0 mm 104 W/m2
13:04 17.4 °C 15.1 °C 1022.9 hPa ENE 0.2 km/h 9.7 km/h 86.1% 0 mm 111 W/m2
13:09 17.6 °C 15.1 °C 1022.6 hPa NE 1.3 km/h 11.3 km/h 85.7% 0 mm 114 W/m2
13:14 17.6 °C 15 °C 1022.6 hPa ENE 0.3 km/h 11.3 km/h 85% 0 mm 109 W/m2
13:19 17.6 °C 15.1 °C 1022.6 hPa ENE 0.8 km/h 11.3 km/h 85% 0 mm 97 W/m2
13:24 17.6 °C 15.1 °C 1022.6 hPa Calm   11.3 km/h 85% 0 mm 83 W/m2
13:29 17.6 °C 15.1 °C 1022.6 hPa Calm   11.3 km/h 85% 0 mm 81 W/m2
13:34 17.7 °C 15.1 °C 1022.6 hPa NE 0.5 km/h 11.3 km/h 85% 0 mm 91 W/m2
13:39 17.7 °C 15.2 °C 1022.6 hPa NE 0.5 km/h 6.4 km/h 85.4% 0 mm 95 W/m2
13:44 17.7 °C 15.2 °C 1022.6 hPa NE 0.6 km/h 8 km/h 85% 0 mm 84 W/m2
13:49 17.8 °C 15.3 °C 1022.2 hPa ENE 0.3 km/h 8 km/h 85.2% 0 mm 79 W/m2
13:54 17.8 °C 15.3 °C 1022.2 hPa East 0.3 km/h 8 km/h 85% 0 mm 83 W/m2
13:59 17.8 °C 15.3 °C 1022.2 hPa East 0.3 km/h 8 km/h 85% 0 mm 70 W/m2
14:04 17.9 °C 15.3 °C 1022.2 hPa East 0.2 km/h 8 km/h 85% 0 mm 67 W/m2
14:09 17.9 °C 15.4 °C 1022.2 hPa Calm   3.2 km/h 85% 0 mm 63 W/m2
14:14 18 °C 15.4 °C 1022.2 hPa East 0.3 km/h 4.8 km/h 85% 0 mm 53 W/m2
14:19 17.9 °C 15.3 °C 1021.9 hPa Calm   4.8 km/h 84.4% 0 mm 53 W/m2
14:24 17.9 °C 15.3 °C 1022.2 hPa East 1.1 km/h 6.4 km/h 84.8% 0 mm 44 W/m2
14:29 17.9 °C 15.3 °C 1022.2 hPa Calm   6.4 km/h 85% 0 mm 42 W/m2
14:34 17.9 °C 15.3 °C 1021.9 hPa Calm   6.4 km/h 85% 0 mm 47 W/m2
14:39 17.9 °C 15.4 °C 1021.9 hPa ENE 0.3 km/h 6.4 km/h 85.2% 0 mm 46 W/m2
14:44 17.9 °C 15.3 °C 1021.9 hPa ENE 1 km/h 8 km/h 85% 0 mm 58 W/m2
14:49 17.9 °C 15.3 °C 1021.9 hPa East 1.1 km/h 8 km/h 84.9% 0 mm 65 W/m2
14:54 17.9 °C 15.2 °C 1021.9 hPa ENE 2.6 km/h 16.1 km/h 84% 0 mm 70 W/m2
14:59 18 °C 15.2 °C 1021.9 hPa East 2.7 km/h 16.1 km/h 83.6% 0 mm 72 W/m2
15:04 18.1 °C 15.1 °C 1021.9 hPa NE 2.7 km/h 16.1 km/h 83.2% 0 mm 62 W/m2
15:09 18.1 °C 15.1 °C 1021.9 hPa ENE 1.4 km/h 12.9 km/h 83% 0 mm 70 W/m2
15:14 18.1 °C 15.2 °C 1021.6 hPa East 2.7 km/h 12.9 km/h 83% 0 mm 67 W/m2
15:19 18.1 °C 15.2 °C 1021.6 hPa ENE 1.4 km/h 12.9 km/h 82.8% 0 mm 65 W/m2
15:24 18.1 °C 15.2 °C 1021.6 hPa ENE 4 km/h 12.9 km/h 83% 0 mm 69 W/m2
15:29 18.1 °C 15.1 °C 1021.6 hPa NE 4.8 km/h 14.5 km/h 82.4% 0 mm 69 W/m2
15:34 18.2 °C 15.1 °C 1021.6 hPa ENE 4.3 km/h 16.1 km/h 82.5% 0 mm 77 W/m2
15:39 18.2 °C 15.1 °C 1021.6 hPa ENE 5 km/h 16.1 km/h 82% 0 mm 77 W/m2
15:44 18.2 °C 15.1 °C 1021.6 hPa NE 4.7 km/h 20.9 km/h 82% 0 mm 69 W/m2
15:49 18.3 °C 15.1 °C 1021.6 hPa ENE 5.1 km/h 20.9 km/h 82% 0 mm 67 W/m2
15:54 18.3 °C 15.2 °C 1021.6 hPa East 1.3 km/h 20.9 km/h 82% 0 mm 63 W/m2
15:59 18.3 °C 15.2 °C 1021.6 hPa ENE 2.6 km/h 20.9 km/h 81.9% 0 mm 77 W/m2
16:09 18.3 °C 15.1 °C 1021.2 hPa ENE 3.4 km/h 14.5 km/h 81.3% 0 mm 63 W/m2
16:14 18.3 °C 15 °C 1021.2 hPa ENE 3.5 km/h 14.5 km/h 81% 0 mm 56 W/m2
16:19 18.3 °C 14.9 °C 1021.2 hPa ENE 2.1 km/h 14.5 km/h 81% 0 mm 56 W/m2
16:24 18.2 °C 14.9 °C 1021.2 hPa East 4.3 km/h 14.5 km/h 81% 0 mm 54 W/m2
16:29 18.2 °C 14.9 °C 1021.2 hPa NE 5.6 km/h 17.7 km/h 81% 0 mm 53 W/m2
16:34 18.2 °C 14.9 °C 1021.2 hPa NE 2.6 km/h 17.7 km/h 81% 0 mm 49 W/m2
16:39 18.2 °C 14.8 °C 1021.2 hPa ENE 4.8 km/h 16.1 km/h 81% 0 mm 53 W/m2
16:44 18.2 °C 14.8 °C 1021.2 hPa ENE 2.4 km/h 16.1 km/h 81% 0 mm 58 W/m2
16:49 18.2 °C 14.8 °C 1020.9 hPa NE 2.9 km/h 16.1 km/h 81% 0 mm 65 W/m2
16:54 18.2 °C 14.8 °C 1020.9 hPa ENE 2.3 km/h 16.1 km/h 81% 0 mm 58 W/m2
16:59 18.2 °C 14.9 °C 1020.9 hPa ENE 1.1 km/h 16.1 km/h 81.2% 0 mm 47 W/m2
17:04 18.2 °C 14.9 °C 1020.9 hPa NE 1.4 km/h 16.1 km/h 81.5% 0 mm 44 W/m2
17:09 18.1 °C 14.8 °C 1020.9 hPa NE 1.8 km/h 9.7 km/h 81% 0 mm 39 W/m2
17:14 18.1 °C 14.8 °C 1020.9 hPa NE 2.7 km/h 11.3 km/h 81% 0 mm 35 W/m2
17:19 18.1 °C 14.8 °C 1021.2 hPa NE 2.1 km/h 11.3 km/h 81.3% 0 mm 26 W/m2
17:24 18 °C 14.8 °C 1021.2 hPa NNE 0.8 km/h 11.3 km/h 81.6% 0 mm 18 W/m2
17:29 17.9 °C 14.8 °C 1021.2 hPa ENE 0.8 km/h 11.3 km/h 81.8% 0 mm 14 W/m2
17:34 17.8 °C 14.7 °C 1021.2 hPa NE 2.1 km/h 11.3 km/h 82% 0 mm 12 W/m2
17:39 17.8 °C 14.7 °C 1021.2 hPa NE 2.7 km/h 11.3 km/h 82% 0 mm 9 W/m2
17:44 17.7 °C 14.6 °C 1021.2 hPa ENE 1 km/h 11.3 km/h 82% 0 mm 7 W/m2
17:49 17.7 °C 14.6 °C 1021.2 hPa ENE 0.2 km/h 11.3 km/h 82% 0 mm 7 W/m2
17:54 17.6 °C 14.5 °C 1021.2 hPa ENE 0.6 km/h 11.3 km/h 82% 0 mm 7 W/m2
17:59 17.6 °C 14.6 °C 1021.2 hPa ENE 0.6 km/h 11.3 km/h 82.7% 0 mm 7 W/m2
18:04 17.6 °C 14.6 °C 1021.2 hPa ENE 0.2 km/h 11.3 km/h 83% 0 mm 5 W/m2
18:09 17.5 °C 14.6 °C 1021.2 hPa Calm   3.2 km/h 83% 0 mm 0 W/m2
18:39 17.3 °C 14.6 °C 1020.9 hPa ENE 0.6 km/h 4.8 km/h 84% 0 mm 0 W/m2
18:44 17.2 °C 14.5 °C 1020.9 hPa ENE 0.6 km/h 6.4 km/h 84% 0 mm 0 W/m2
18:49 17.2 °C 14.5 °C 1020.9 hPa ENE 0.5 km/h 6.4 km/h 84% 0 mm 0 W/m2
18:54 17.2 °C 14.5 °C 1021.2 hPa ENE 1 km/h 8 km/h 84% 0 mm 0 W/m2
18:59 17.2 °C 14.4 °C 1021.2 hPa ENE 1 km/h 8 km/h 84% 0 mm 0 W/m2
19:04 17.2 °C 14.4 °C 1020.9 hPa ENE 1.3 km/h 8 km/h 84% 0 mm 0 W/m2
19:09 17.1 °C 14.4 °C 1020.9 hPa Calm   8 km/h 84.2% 0 mm 0 W/m2
19:14 17.1 °C 14.3 °C 1020.9 hPa Calm   8 km/h 84% 0 mm 0 W/m2
19:19 17.1 °C 14.5 °C 1020.9 hPa Calm   8 km/h 84.8% 0 mm 0 W/m2
19:24 17.1 °C 14.5 °C 1020.9 hPa Calm   8 km/h 85% 0 mm 0 W/m2
19:29 17 °C 14.4 °C 1020.9 hPa NE 0.8 km/h 9.7 km/h 85% 0 mm 0 W/m2
19:34 16.9 °C 14.4 °C 1020.9 hPa ENE 1.1 km/h 9.7 km/h 85% 0 mm 0 W/m2
19:39 16.9 °C 14.4 °C 1020.9 hPa NE 2.1 km/h 11.3 km/h 85% 0 mm 0 W/m2
19:44 16.9 °C 14.3 °C 1020.5 hPa ENE 1.4 km/h 11.3 km/h 85% 0 mm 0 W/m2
19:49 16.8 °C 14.3 °C 1020.5 hPa ENE 0.8 km/h 11.3 km/h 85% 0 mm 0 W/m2
19:54 16.8 °C 14.3 °C 1020.5 hPa ENE 0.2 km/h 11.3 km/h 85% 0 mm 0 W/m2
19:58 16.8 °C 14.3 °C 1020.5 hPa ENE 0.2 km/h 11.3 km/h 85% 0 mm 0 W/m2
20:04 16.8 °C 14.2 °C 1020.5 hPa Calm     85% 0 mm 0 W/m2
20:09 16.7 °C 14.2 °C 1020.5 hPa ENE 0.3 km/h 4.8 km/h 85% 0 mm 0 W/m2
20:14 16.7 °C 14.2 °C 1020.5 hPa Calm   4.8 km/h 85% 0 mm 0 W/m2
20:19 16.7 °C 14.2 °C 1020.5 hPa ENE 1.4 km/h 8 km/h 85% 0 mm 0 W/m2
20:24 16.7 °C 14.2 °C 1020.5 hPa ENE 1.3 km/h 8 km/h 85% 0 mm 0 W/m2
20:29 16.7 °C 14.3 °C 1020.5 hPa ENE 1.3 km/h 8 km/h 85.8% 0 mm 0 W/m2
20:34 16.7 °C 14.3 °C 1020.5 hPa Calm   8 km/h 86% 0 mm 0 W/m2
20:39 16.7 °C 14.3 °C 1020.5 hPa Calm   4.8 km/h 86% 0 mm 0 W/m2
20:44 16.6 °C 14.3 °C 1020.9 hPa Calm   4.8 km/h 86% 0 mm 0 W/m2
20:49 16.6 °C 14.3 °C 1020.9 hPa Calm   4.8 km/h 86% 0 mm 0 W/m2
20:54 16.6 °C 14.3 °C 1020.9 hPa ENE 0.2 km/h 4.8 km/h 86% 0 mm 0 W/m2
20:59 16.6 °C 14.3 °C 1020.9 hPa Calm   4.8 km/h 86.3% 0 mm 0 W/m2
21:04 16.6 °C 14.3 °C 1020.9 hPa ENE 0.2 km/h 4.8 km/h 86.8% 0 mm 0 W/m2
21:09 16.6 °C 14.4 °C 1020.9 hPa ENE 0.3 km/h 4.8 km/h 87% 0 mm 0 W/m2
21:14 16.6 °C 14.4 °C 1020.9 hPa Calm   4.8 km/h 87% 0 mm 0 W/m2
21:19 16.5 °C 14.3 °C 1020.5 hPa Calm   4.8 km/h 87% 0 mm 0 W/m2
21:24 16.5 °C 14.3 °C 1020.5 hPa ENE 0.5 km/h 4.8 km/h 87% 0 mm 0 W/m2
21:29 16.5 °C 14.3 °C 1020.5 hPa ENE 0.2 km/h 4.8 km/h 87% 0 mm 0 W/m2
21:34 16.4 °C 14.3 °C 1020.5 hPa Calm   4.8 km/h 87% 0 mm 0 W/m2
21:39 16.4 °C 14.3 °C 1020.5 hPa ENE 0.6 km/h 6.4 km/h 87% 0 mm 0 W/m2
21:44 16.4 °C 14.3 °C 1020.5 hPa ENE 0.2 km/h 6.4 km/h 87% 0 mm 0 W/m2
21:49 16.4 °C 14.3 °C 1020.5 hPa NNE 0.2 km/h 6.4 km/h 87.2% 0 mm 0 W/m2
21:54 16.4 °C 14.4 °C 1020.5 hPa Calm   6.4 km/h 88% 0 mm 0 W/m2
21:59 16.4 °C 14.4 °C 1020.5 hPa Calm   6.4 km/h 88% 0 mm 0 W/m2
22:04 16.4 °C 14.4 °C 1020.5 hPa ENE 1 km/h 8 km/h 88% 0 mm 0 W/m2
22:09 16.4 °C 14.4 °C 1020.5 hPa ENE 0.8 km/h 8 km/h 88% 0 mm 0 W/m2
22:14 16.4 °C 14.4 °C 1020.2 hPa ENE 1.8 km/h 11.3 km/h 88% 0 mm 0 W/m2
22:19 16.3 °C 14.4 °C 1020.2 hPa ENE 1.9 km/h 11.3 km/h 88% 0 mm 0 W/m2
22:24 16.3 °C 14.3 °C 1020.2 hPa ENE 0.8 km/h 11.3 km/h 88% 0 mm 0 W/m2
22:29 16.3 °C 14.4 °C 1020.2 hPa NE 1.9 km/h 11.3 km/h 88.7% 0 mm 0 W/m2
22:34 16.3 °C 14.5 °C 1019.9 hPa ENE 1.4 km/h 11.3 km/h 89% 0 mm 0 W/m2
22:39 16.3 °C 14.5 °C 1019.9 hPa ENE 0.2 km/h 9.7 km/h 89% 0 mm 0 W/m2
22:44 16.3 °C 14.5 °C 1019.9 hPa ENE 0.3 km/h 9.7 km/h 89% 0 mm 0 W/m2
22:49 16.3 °C 14.4 °C 1019.9 hPa Calm   9.7 km/h 89% 0 mm 0 W/m2
22:54 16.3 °C 14.6 °C 1019.9 hPa Calm   9.7 km/h 89.4% 0 mm 0 W/m2
22:59 16.2 °C 14.6 °C 1020.2 hPa Calm   9.7 km/h 90% 0 mm 0 W/m2
23:04 16.2 °C 14.6 °C 1019.9 hPa NNE 0.2 km/h 9.7 km/h 90% 0 mm 0 W/m2
23:09 16.1 °C 14.4 °C 1020.2 hPa North 1 km/h 9.7 km/h 89.5% 0 mm 0 W/m2
23:14 16.1 °C 14.4 °C 1020.2 hPa North 0.2 km/h 9.7 km/h 90% 0 mm 0 W/m2
23:19 16.1 °C 14.4 °C 1019.9 hPa North 0.3 km/h 9.7 km/h 90% 0 mm 0 W/m2
23:24 16 °C 14.4 °C 1019.9 hPa NNW 2.3 km/h 9.7 km/h 90% 0 mm 0 W/m2
23:29 15.9 °C 14.3 °C 1019.9 hPa NW 1 km/h 16.1 km/h 90% 0 mm 0 W/m2
23:34 15.9 °C 14.2 °C 1019.9 hPa North 1.4 km/h 16.1 km/h 90% 0 mm 0 W/m2
23:39 15.8 °C 14.2 °C 1019.9 hPa NNE 1.4 km/h 16.1 km/h 90% 0 mm 0 W/m2
23:44 15.8 °C 14.2 °C 1019.9 hPa NNW 1.1 km/h 16.1 km/h 90.2% 0 mm 0 W/m2
23:49 15.7 °C 14.3 °C 1019.9 hPa NNW 1.9 km/h 16.1 km/h 91% 0 mm 0 W/m2
23:54 15.7 °C 14.2 °C 1019.9 hPa NNW 0.3 km/h 16.1 km/h 91% 0 mm 0 W/m2
23:59 15.7 °C 14.2 °C 1019.9 hPa NW 1.9 km/h 16.1 km/h 91% 0 mm 0 W/m2
Hartford County Weather
Compliments of Weather Underground - 4 mb